aviador You're here:

KROG Decoded Metar

ROGERS in AR, USA
Report Time2018-01-22 01:58:00
UTC Time2018-01-22 02:03:38
Flight Rules vfr VFR
Wind130° at 14 Gusting to 22 kt
W.Decomp.*RWY 20: 3.9 kt HW 13.5 kt LCW
W.Rank130° ranks 9
Current wind is above 130° avg. (6.3)
Visibility9999 m
Phenomena:N/A
Clouds:Few 027 Hf
Scattered 033 Hf
Overcast 085 Hf
Expected CloudBase > 400 ft AGL from Temp-Dew spread
Ceiling8,500 ft
Temp15°C (ISA +3)
Dew Point14°C (94% RH)
AAT11.2°C
QNH1004 hPa
Density Alt2,205 ft
Elevation1,362 ft
Report Wrong Elevation
Raw Report
KROG 220158Z AUTO 13014G22KT 10SM FEW027 SCT033 OVC085 15/14 A2966
RMK AO2 LTG DSNT W PRESFR SLP036 P0003 T01500139=

Extra information for KROG:More info

Metar Taf Metar & Taf Last 4 Metars F.Rules Stats Wind Profile Meteogram Temp Stats Airport Information Weather charts Add Link Nearby VenuesMetar ALERT Operation Metar Decoded Social comments

AIRNAV info for KROG